createdAt,value
2022-08-26T00:01:55.454Z,55.78
2022-08-26T00:04:23.534Z,54.40
2022-08-26T00:06:50.213Z,53.92
2022-08-26T00:09:19.315Z,53.47
2022-08-26T00:11:46.139Z,56.38
2022-08-26T00:14:14.168Z,54.15
2022-08-26T00:19:07.512Z,55.03
2022-08-26T00:24:00.656Z,58.80
2022-08-26T00:26:28.472Z,55.45
2022-08-26T00:28:55.632Z,60.15
2022-08-26T00:31:22.042Z,53.58
2022-08-26T00:33:48.399Z,53.95
2022-08-26T00:36:20.355Z,55.72
2022-08-26T00:38:49.869Z,54.47
2022-08-26T00:41:18.582Z,52.50
2022-08-26T00:43:47.494Z,56.88
2022-08-26T00:46:18.858Z,56.20
2022-08-26T00:48:49.899Z,58.22
2022-08-26T00:51:24.598Z,52.83
2022-08-26T00:54:01.957Z,57.67
2022-08-26T00:56:43.194Z,58.60
2022-08-26T00:59:12.452Z,51.13
2022-08-26T01:01:41.219Z,54.83
2022-08-26T01:04:08.373Z,57.17
2022-08-26T01:06:34.909Z,53.17
2022-08-26T01:09:01.598Z,56.97
2022-08-26T01:11:28.056Z,58.55
2022-08-26T01:13:56.297Z,53.38
2022-08-26T01:16:24.867Z,58.75
2022-08-26T01:18:54.618Z,53.88
2022-08-26T01:21:40.743Z,56.65
2022-08-26T01:24:08.693Z,50.72
2022-08-26T01:26:41.604Z,53.67
2022-08-26T01:29:12.957Z,57.13
2022-08-26T01:31:42.059Z,56.35
2022-08-26T01:34:12.190Z,60.47
2022-08-26T01:36:39.300Z,57.83
2022-08-26T01:39:07.234Z,60.85
2022-08-26T01:41:35.078Z,59.50
2022-08-26T01:44:02.776Z,56.28
2022-08-26T01:46:29.662Z,57.97
2022-08-26T01:48:58.294Z,58.38
2022-08-26T01:51:25.357Z,61.45
2022-08-26T01:56:22.272Z,67.30
2022-08-26T01:58:53.560Z,60.28
2022-08-26T02:01:20.428Z,57.38
2022-08-26T02:04:07.050Z,62.05
2022-08-26T02:06:33.498Z,55.00
2022-08-26T02:09:01.612Z,65.15
2022-08-26T02:11:28.310Z,63.60
2022-08-26T02:13:57.053Z,61.00
2022-08-26T02:16:26.215Z,69.07
2022-08-26T02:18:53.481Z,56.42
2022-08-26T02:21:19.894Z,55.67
2022-08-26T02:23:48.187Z,52.00
2022-08-26T02:26:19.358Z,48.92
2022-08-26T02:29:15.405Z,53.50
2022-08-26T02:31:42.028Z,53.63
2022-08-26T02:34:10.735Z,49.72
2022-08-26T02:36:38.858Z,49.10
2022-08-26T02:39:06.407Z,49.80
2022-08-26T02:41:33.274Z,46.58
2022-08-26T02:43:59.832Z,48.08
2022-08-26T02:46:29.856Z,49.63
2022-08-26T02:48:56.842Z,43.53
2022-08-26T02:51:23.166Z,46.50
2022-08-26T02:53:49.662Z,47.60
2022-08-26T02:56:20.485Z,49.53
2022-08-26T02:58:49.241Z,44.30
2022-08-26T03:01:23.231Z,51.70
2022-08-26T03:03:49.791Z,37.67
2022-08-26T03:06:18.759Z,43.75
2022-08-26T03:08:45.461Z,40.08
2022-08-26T03:11:12.397Z,44.22
2022-08-26T03:13:39.722Z,40.97
2022-08-26T03:16:06.777Z,35.83
2022-08-26T03:18:33.613Z,35.85
2022-08-26T03:21:05.499Z,35.45
2022-08-26T03:23:32.515Z,41.05
2022-08-26T03:28:27.157Z,38.30
2022-08-26T03:30:53.686Z,31.95
2022-08-26T03:33:20.182Z,35.65
2022-08-26T03:35:50.684Z,37.47
2022-08-26T03:38:21.085Z,31.10
2022-08-26T03:40:50.668Z,31.90
2022-08-26T03:43:20.032Z,28.35
2022-08-26T03:45:48.704Z,34.47
2022-08-26T03:48:20.618Z,26.77
2022-08-26T03:50:47.282Z,32.30
2022-08-26T03:53:16.987Z,29.13
2022-08-26T03:55:47.513Z,28.58
2022-08-26T03:58:18.498Z,28.92
2022-08-26T04:00:44.937Z,27.10
2022-08-26T04:03:18.514Z,28.02
2022-08-26T04:05:45.146Z,30.10
2022-08-26T04:08:12.278Z,31.15
2022-08-26T04:10:38.949Z,27.02
2022-08-26T04:13:05.362Z,29.98
2022-08-26T04:15:31.745Z,28.13
2022-08-26T04:17:58.247Z,28.08
2022-08-26T04:20:25.185Z,28.33
2022-08-26T04:22:51.776Z,27.95
2022-08-26T04:25:22.417Z,29.15
2022-08-26T04:27:50.572Z,27.30
2022-08-26T04:30:19.358Z,31.33
2022-08-26T04:32:45.666Z,24.58
2022-08-26T04:35:12.016Z,27.55
2022-08-26T04:37:38.316Z,28.88
2022-08-26T04:40:05.297Z,26.00
2022-08-26T04:42:33.327Z,28.48
2022-08-26T04:45:00.647Z,24.98
2022-08-26T04:47:31.710Z,24.77
2022-08-26T04:49:58.843Z,23.02
2022-08-26T04:52:25.201Z,25.95
2022-08-26T04:54:51.867Z,22.80
2022-08-26T04:57:23.224Z,26.42
2022-08-26T04:59:49.561Z,22.67
2022-08-26T05:02:16.127Z,27.30
2022-08-26T05:04:43.616Z,23.55
2022-08-26T05:07:10.710Z,23.95
2022-08-26T05:12:03.493Z,25.95
2022-08-26T05:14:30.139Z,30.02
2022-08-26T05:16:56.440Z,25.25
2022-08-26T05:19:25.659Z,23.98
2022-08-26T05:21:54.476Z,26.67
2022-08-26T05:24:23.572Z,21.38
2022-08-26T05:26:50.122Z,26.02
2022-08-26T05:29:20.529Z,20.15
2022-08-26T05:31:50.325Z,22.25
2022-08-26T05:34:19.858Z,22.08
2022-08-26T05:36:49.288Z,21.17
2022-08-26T05:39:15.932Z,23.13
2022-08-26T05:41:43.162Z,21.67
2022-08-26T05:44:12.853Z,21.08
2022-08-26T05:46:41.211Z,15.10
2022-08-26T05:49:12.261Z,21.67
2022-08-26T05:51:39.846Z,15.68
2022-08-26T05:54:06.946Z,17.23
2022-08-26T05:59:01.492Z,18.85
2022-08-26T06:01:29.013Z,22.13
2022-08-26T06:03:57.186Z,23.08
2022-08-26T06:06:33.589Z,21.48
2022-08-26T06:09:01.498Z,20.77
2022-08-26T06:11:29.791Z,22.45
2022-08-26T06:14:03.101Z,18.38
2022-08-26T06:16:30.826Z,15.23
2022-08-26T06:18:57.665Z,19.33
2022-08-26T06:21:26.280Z,19.80
2022-08-26T06:24:12.895Z,29.98
2022-08-26T06:26:47.006Z,18.83
2022-08-26T06:29:24.285Z,18.08
2022-08-26T06:31:51.939Z,27.08
2022-08-26T06:34:21.516Z,16.95
2022-08-26T06:36:53.133Z,24.27
2022-08-26T06:39:19.648Z,25.00
2022-08-26T06:41:49.450Z,19.38
2022-08-26T06:44:16.199Z,18.15
2022-08-26T06:46:43.223Z,17.77
2022-08-26T06:49:11.164Z,18.88
2022-08-26T06:51:38.477Z,21.63
2022-08-26T06:54:05.775Z,17.15
2022-08-26T06:56:37.661Z,19.85
2022-08-26T06:59:04.041Z,16.77
2022-08-26T07:01:34.896Z,13.32
2022-08-26T07:04:03.995Z,11.65
2022-08-26T07:06:49.136Z,15.02
2022-08-26T07:09:16.007Z,17.30
2022-08-26T07:14:09.077Z,13.82
2022-08-26T07:16:35.794Z,14.77
2022-08-26T07:21:29.812Z,17.60
2022-08-26T07:24:01.286Z,16.98
2022-08-26T07:26:28.807Z,14.82
2022-08-26T07:28:56.394Z,10.70
2022-08-26T07:31:24.597Z,8.77
2022-08-26T07:33:51.280Z,16.00
2022-08-26T07:36:21.629Z,14.77
2022-08-26T07:38:51.340Z,20.45
2022-08-26T07:41:18.898Z,13.43
2022-08-26T07:43:45.921Z,11.23
2022-08-26T07:46:18.601Z,12.52
2022-08-26T07:48:53.402Z,12.43
2022-08-26T07:51:20.731Z,11.88
2022-08-26T07:53:52.335Z,10.40
2022-08-26T07:56:19.349Z,12.93
2022-08-26T07:58:49.011Z,14.30
2022-08-26T08:01:17.802Z,9.77
2022-08-26T08:03:51.723Z,12.68
2022-08-26T08:06:19.199Z,9.68
2022-08-26T08:08:45.769Z,14.85
2022-08-26T08:11:12.210Z,12.70
2022-08-26T08:13:38.713Z,12.48
2022-08-26T08:16:05.699Z,11.25
2022-08-26T08:18:31.980Z,13.93
2022-08-26T08:21:21.313Z,8.68
2022-08-26T08:23:48.790Z,11.90
2022-08-26T08:26:15.380Z,9.27
2022-08-26T08:28:43.433Z,11.77
2022-08-26T08:31:21.604Z,10.48
2022-08-26T08:33:59.688Z,14.25
2022-08-26T08:36:26.030Z,7.35
2022-08-26T08:39:02.128Z,16.33
2022-08-26T08:41:52.577Z,14.20
2022-08-26T08:44:21.074Z,13.68
2022-08-26T08:46:53.664Z,12.93
2022-08-26T08:49:20.448Z,9.48
2022-08-26T08:54:19.664Z,11.73
2022-08-26T08:56:48.354Z,12.80
2022-08-26T09:01:53.994Z,11.88
2022-08-26T09:04:38.321Z,14.15
2022-08-26T09:07:06.936Z,16.23
2022-08-26T09:09:39.141Z,12.30
2022-08-26T09:12:07.599Z,13.85
2022-08-26T09:14:35.658Z,13.60
2022-08-26T09:17:10.199Z,10.77
2022-08-26T09:19:41.349Z,11.65
2022-08-26T09:22:09.547Z,11.55
2022-08-26T09:24:42.132Z,11.23
2022-08-26T09:27:34.820Z,7.90
2022-08-26T09:30:07.154Z,9.13
2022-08-26T09:32:37.765Z,10.18
2022-08-26T09:35:07.752Z,14.85
2022-08-26T09:37:36.926Z,11.75
2022-08-26T09:40:15.686Z,15.55
2022-08-26T09:42:42.537Z,9.73
2022-08-26T09:45:11.802Z,13.85
2022-08-26T09:47:52.689Z,8.27
2022-08-26T09:50:18.955Z,11.57
2022-08-26T09:52:45.423Z,10.75
2022-08-26T09:55:14.171Z,9.00
2022-08-26T09:58:03.594Z,11.15
2022-08-26T10:00:38.441Z,13.45
2022-08-26T10:03:08.693Z,10.35
2022-08-26T10:06:07.460Z,8.65
2022-08-26T10:08:42.186Z,12.52
2022-08-26T10:11:26.163Z,11.50
2022-08-26T10:14:01.631Z,9.50
2022-08-26T10:16:33.240Z,11.75
2022-08-26T10:19:20.967Z,8.25
2022-08-26T10:22:00.001Z,8.93
2022-08-26T10:24:55.167Z,10.60
2022-08-26T10:27:24.507Z,9.60
2022-08-26T10:29:54.723Z,6.65
2022-08-26T10:32:30.355Z,11.35
2022-08-26T10:34:56.877Z,7.70
2022-08-26T10:37:25.923Z,12.80
2022-08-26T10:40:07.869Z,5.97
2022-08-26T10:42:40.353Z,7.50
2022-08-26T10:45:11.996Z,8.27
2022-08-26T10:47:44.963Z,8.52
2022-08-26T10:50:11.719Z,10.25
2022-08-26T10:52:49.517Z,6.10
2022-08-26T10:55:19.056Z,5.32
2022-08-26T10:58:11.833Z,7.38
2022-08-26T11:01:02.963Z,9.40
2022-08-26T11:03:37.006Z,12.57
2022-08-26T11:06:19.240Z,9.18
2022-08-26T11:08:49.614Z,6.97
2022-08-26T11:11:34.958Z,12.05
2022-08-26T11:14:04.645Z,5.30
2022-08-26T11:16:33.976Z,6.57
2022-08-26T11:19:01.107Z,8.15
2022-08-26T11:21:49.520Z,5.25
2022-08-26T11:24:35.984Z,8.90
2022-08-26T11:27:02.269Z,6.90
2022-08-26T11:29:48.987Z,6.95
2022-08-26T11:32:45.067Z,4.88
2022-08-26T11:35:20.994Z,6.50
2022-08-26T11:37:48.212Z,7.97
2022-08-26T11:42:41.589Z,7.15
2022-08-26T11:45:38.378Z,8.73
2022-08-26T11:48:18.329Z,8.68
2022-08-26T11:50:55.043Z,6.13
2022-08-26T11:53:22.597Z,7.70
2022-08-26T11:55:50.347Z,8.05
2022-08-26T11:58:19.249Z,9.25
2022-08-26T12:00:53.031Z,9.48
2022-08-26T12:03:23.199Z,10.43
2022-08-26T12:05:51.758Z,8.95
2022-08-26T12:08:27.813Z,9.95
2022-08-26T12:11:06.259Z,13.20
2022-08-26T12:13:33.819Z,10.35
2022-08-26T12:16:00.880Z,7.47
2022-08-26T12:18:30.520Z,10.95
2022-08-26T12:21:26.248Z,8.52
2022-08-26T12:23:54.662Z,9.75
2022-08-26T12:26:23.897Z,5.70
2022-08-26T12:28:59.537Z,9.68
2022-08-26T12:31:31.940Z,9.93
2022-08-26T12:33:59.359Z,14.45
2022-08-26T12:36:31.921Z,8.13
2022-08-26T12:39:06.752Z,6.95
2022-08-26T12:41:39.285Z,9.48
2022-08-26T12:44:05.768Z,8.68
2022-08-26T12:46:32.126Z,10.18
2022-08-26T12:49:01.304Z,13.55
2022-08-26T12:51:29.469Z,6.57
2022-08-26T12:53:56.441Z,8.68
2022-08-26T12:56:29.295Z,8.48
2022-08-26T12:59:03.083Z,7.63
2022-08-26T13:01:37.487Z,8.27
2022-08-26T13:04:04.003Z,4.47
2022-08-26T13:06:31.125Z,7.95
2022-08-26T13:09:01.741Z,5.75
2022-08-26T13:11:31.575Z,8.32
2022-08-26T13:14:02.623Z,7.38
2022-08-26T13:16:33.509Z,4.47
2022-08-26T13:19:01.637Z,4.63
2022-08-26T13:21:31.938Z,7.63
2022-08-26T13:24:14.463Z,6.72
2022-08-26T13:26:41.619Z,7.45
2022-08-26T13:29:10.540Z,5.60
2022-08-26T13:31:38.551Z,8.45
2022-08-26T13:34:04.984Z,6.70
2022-08-26T13:36:31.435Z,5.95
2022-08-26T13:38:58.068Z,9.02
2022-08-26T13:41:29.010Z,6.68
2022-08-26T13:43:56.023Z,4.88
2022-08-26T13:46:22.406Z,5.65
2022-08-26T13:48:48.773Z,6.03
2022-08-26T13:51:17.596Z,7.35
2022-08-26T13:53:44.052Z,6.75
2022-08-26T13:56:11.059Z,6.15
2022-08-26T13:58:37.607Z,5.20
2022-08-26T14:01:04.022Z,5.70
2022-08-26T14:03:30.582Z,4.30
2022-08-26T14:05:57.028Z,4.93
2022-08-26T14:08:23.479Z,5.47
2022-08-26T14:10:49.869Z,6.32
2022-08-26T14:13:25.135Z,5.40
2022-08-26T14:15:52.258Z,8.25
2022-08-26T14:18:19.919Z,7.93
2022-08-26T14:20:50.518Z,3.45
2022-08-26T14:23:18.613Z,8.88
2022-08-26T14:25:45.181Z,5.88
2022-08-26T14:28:12.011Z,5.95
2022-08-26T14:33:04.695Z,6.30
2022-08-26T14:35:31.309Z,7.93
2022-08-26T14:38:00.556Z,6.55
2022-08-26T14:40:28.671Z,6.93
2022-08-26T14:42:55.125Z,8.27
2022-08-26T14:45:26.005Z,7.50
2022-08-26T14:47:52.830Z,9.05
2022-08-26T14:50:20.979Z,9.27
2022-08-26T14:53:05.950Z,9.48
2022-08-26T14:55:35.946Z,5.03
2022-08-26T14:58:02.770Z,4.93
2022-08-26T15:02:55.744Z,10.85
2022-08-26T15:05:22.662Z,7.20
2022-08-26T15:10:17.918Z,9.32
2022-08-26T15:12:44.674Z,6.75
2022-08-26T15:15:11.910Z,7.47
2022-08-26T15:17:41.652Z,8.82
2022-08-26T15:20:11.737Z,11.73
2022-08-26T15:22:38.876Z,6.43
2022-08-26T15:25:06.106Z,14.52
2022-08-26T15:27:32.512Z,7.45
2022-08-26T15:29:58.823Z,12.70
2022-08-26T15:32:25.135Z,12.23
2022-08-26T15:34:52.965Z,5.38
2022-08-26T15:37:19.738Z,10.07
2022-08-26T15:39:48.510Z,5.82
2022-08-26T15:42:15.308Z,5.90
2022-08-26T15:44:45.310Z,4.80
2022-08-26T15:47:12.866Z,9.18
2022-08-26T15:49:39.816Z,4.78
2022-08-26T15:54:32.573Z,7.40
2022-08-26T15:57:02.329Z,3.50
2022-08-26T15:59:31.072Z,9.32
2022-08-26T16:01:58.082Z,6.20
2022-08-26T16:04:24.670Z,7.38
2022-08-26T16:06:52.132Z,3.83
2022-08-26T16:09:19.429Z,6.63
2022-08-26T16:11:45.839Z,6.78
2022-08-26T16:14:12.299Z,4.15
2022-08-26T16:16:41.717Z,4.25
2022-08-26T16:19:08.413Z,7.32
2022-08-26T16:21:34.957Z,7.10
2022-08-26T16:24:01.355Z,5.60
2022-08-26T16:26:29.092Z,9.93
2022-08-26T16:28:55.460Z,6.88
2022-08-26T16:31:21.968Z,7.20
2022-08-26T16:33:51.454Z,8.75
2022-08-26T16:36:20.412Z,5.13
2022-08-26T16:38:50.058Z,4.00
2022-08-26T16:41:20.326Z,4.90
2022-08-26T16:43:48.993Z,7.43
2022-08-26T16:46:16.388Z,9.13
2022-08-26T16:48:43.480Z,5.82
2022-08-26T16:51:13.616Z,5.20
2022-08-26T16:53:39.924Z,4.18
2022-08-26T16:56:06.602Z,5.53
2022-08-26T16:58:32.912Z,6.05
2022-08-26T17:00:59.290Z,7.28
2022-08-26T17:03:25.737Z,5.65
2022-08-26T17:05:52.230Z,9.40
2022-08-26T17:08:27.368Z,8.43
2022-08-26T17:10:55.176Z,8.40
2022-08-26T17:13:25.989Z,10.13
2022-08-26T17:16:08.142Z,5.63
2022-08-26T17:18:37.934Z,5.82
2022-08-26T17:21:05.690Z,12.18
2022-08-26T17:23:32.341Z,6.38
2022-08-26T17:25:58.699Z,5.00
2022-08-26T17:28:25.278Z,4.55
2022-08-26T17:30:51.736Z,9.88
2022-08-26T17:33:24.434Z,3.33
2022-08-26T17:35:51.156Z,13.77
2022-08-26T17:38:21.107Z,9.85
2022-08-26T17:40:48.663Z,8.35
2022-08-26T17:43:15.133Z,6.63
2022-08-26T17:45:41.458Z,8.90
2022-08-26T17:48:08.160Z,5.78
2022-08-26T17:50:34.946Z,4.70
2022-08-26T17:53:01.303Z,6.90
2022-08-26T17:55:28.698Z,7.90
2022-08-26T17:57:55.232Z,6.05
2022-08-26T18:00:23.257Z,8.90
2022-08-26T18:02:49.622Z,5.30
2022-08-26T18:05:17.417Z,6.80
2022-08-26T18:07:44.889Z,6.53
2022-08-26T18:10:13.404Z,7.13
2022-08-26T18:12:40.939Z,7.43
2022-08-26T18:15:07.797Z,7.72
2022-08-26T18:17:34.600Z,5.07
2022-08-26T18:20:03.455Z,6.00
2022-08-26T18:22:29.855Z,5.28
2022-08-26T18:24:59.214Z,6.97
2022-08-26T18:27:26.106Z,6.82
2022-08-26T18:29:52.587Z,6.22
2022-08-26T18:32:18.865Z,6.30
2022-08-26T18:34:45.235Z,9.65
2022-08-26T18:39:39.567Z,5.30
2022-08-26T18:42:06.037Z,9.00
2022-08-26T18:44:32.468Z,4.38
2022-08-26T18:46:58.766Z,6.70
2022-08-26T18:49:25.135Z,7.32
2022-08-26T18:51:52.326Z,8.02
2022-08-26T18:56:50.662Z,5.57
2022-08-26T18:59:20.342Z,8.93
2022-08-26T19:01:56.909Z,5.50
2022-08-26T19:04:23.468Z,12.57
2022-08-26T19:06:51.187Z,5.53
2022-08-26T19:09:20.838Z,13.73
2022-08-26T19:11:50.259Z,5.22
2022-08-26T19:14:20.060Z,8.65
2022-08-26T19:16:47.860Z,8.25
2022-08-26T19:19:14.966Z,7.65
2022-08-26T19:24:12.116Z,8.48
2022-08-26T19:26:39.077Z,5.05
2022-08-26T19:29:05.590Z,8.38
2022-08-26T19:31:31.932Z,6.38
2022-08-26T19:33:58.971Z,8.18
2022-08-26T19:38:52.256Z,12.73
2022-08-26T19:41:20.647Z,7.25
2022-08-26T19:43:49.957Z,8.65
2022-08-26T19:46:19.028Z,7.22
2022-08-26T19:48:45.910Z,5.82
2022-08-26T19:51:14.834Z,10.77
2022-08-26T19:53:43.579Z,6.07
2022-08-26T19:56:10.501Z,9.40
2022-08-26T19:58:36.864Z,10.77
2022-08-26T20:01:03.695Z,8.70
2022-08-26T20:03:30.180Z,10.10
2022-08-26T20:05:56.540Z,8.55
2022-08-26T20:08:31.768Z,4.32
2022-08-26T20:11:05.931Z,4.43
2022-08-26T20:13:32.758Z,5.25
2022-08-26T20:15:59.121Z,18.38
2022-08-26T20:18:43.956Z,5.47
2022-08-26T20:21:27.112Z,7.20
2022-08-26T20:24:00.858Z,10.98
2022-08-26T20:26:28.610Z,8.10
2022-08-26T20:28:55.487Z,6.65
2022-08-26T20:31:21.861Z,5.68
2022-08-26T20:33:48.751Z,11.77
2022-08-26T20:36:15.505Z,8.73
2022-08-26T20:38:41.884Z,7.50
2022-08-26T20:41:08.274Z,9.63
2022-08-26T20:43:34.641Z,6.72
2022-08-26T20:46:01.364Z,7.38
2022-08-26T20:48:28.062Z,14.27
2022-08-26T20:50:58.936Z,6.78
2022-08-26T20:53:26.289Z,6.60
2022-08-26T20:55:54.855Z,8.18
2022-08-26T20:58:23.385Z,9.98
2022-08-26T21:00:50.009Z,5.55
2022-08-26T21:03:19.502Z,12.68
2022-08-26T21:05:45.803Z,7.45
2022-08-26T21:08:12.512Z,5.80
2022-08-26T21:10:39.305Z,9.05
2022-08-26T21:13:05.705Z,17.13
2022-08-26T21:15:32.053Z,10.32
2022-08-26T21:17:59.001Z,6.22
2022-08-26T21:20:25.322Z,5.80
2022-08-26T21:22:51.690Z,8.00
2022-08-26T21:25:18.127Z,6.05
2022-08-26T21:27:44.493Z,6.07
2022-08-26T21:30:11.099Z,7.25
2022-08-26T21:32:37.368Z,6.95
2022-08-26T21:35:03.761Z,5.40
2022-08-26T21:37:30.060Z,10.65
2022-08-26T21:39:57.183Z,9.47
2022-08-26T21:44:52.980Z,11.85
2022-08-26T21:47:22.433Z,8.13
2022-08-26T21:49:49.048Z,6.30
2022-08-26T21:52:15.384Z,10.98
2022-08-26T21:54:41.658Z,11.68
2022-08-26T21:57:16.091Z,8.68
2022-08-26T21:59:42.388Z,7.50
2022-08-26T22:02:08.706Z,5.10
2022-08-26T22:04:35.759Z,6.22
2022-08-26T22:07:02.147Z,8.85
2022-08-26T22:09:30.877Z,6.88
2022-08-26T22:11:57.234Z,7.82
2022-08-26T22:14:30.463Z,7.10
2022-08-26T22:16:57.744Z,6.90
2022-08-26T22:19:24.500Z,6.65
2022-08-26T22:21:52.510Z,5.70
2022-08-26T22:24:19.720Z,8.13
2022-08-26T22:29:14.641Z,4.07
2022-08-26T22:31:41.839Z,4.68
2022-08-26T22:36:34.776Z,3.65
2022-08-26T22:39:01.140Z,7.95
2022-08-26T22:41:27.774Z,4.93
2022-08-26T22:43:54.505Z,9.80
2022-08-26T22:46:24.615Z,9.40
2022-08-26T22:48:53.814Z,5.60
2022-08-26T22:51:20.666Z,7.30
2022-08-26T22:53:50.061Z,7.40
2022-08-26T22:56:18.256Z,7.20
2022-08-26T22:58:44.739Z,7.78
2022-08-26T23:01:11.291Z,6.55
2022-08-26T23:03:37.771Z,6.78
2022-08-26T23:06:10.047Z,7.78
2022-08-26T23:08:36.986Z,7.47
2022-08-26T23:11:06.679Z,6.93
2022-08-26T23:13:32.965Z,3.60
2022-08-26T23:16:03.602Z,8.67
2022-08-26T23:18:29.926Z,11.40
2022-08-26T23:20:56.218Z,7.90
2022-08-26T23:23:22.821Z,8.13
2022-08-26T23:25:49.724Z,6.40
2022-08-26T23:28:18.755Z,11.98
2022-08-26T23:30:48.853Z,6.78
2022-08-26T23:33:15.201Z,8.23
2022-08-26T23:35:41.505Z,8.13
2022-08-26T23:38:09.755Z,7.17
2022-08-26T23:40:38.718Z,8.27
2022-08-26T23:45:31.930Z,7.82
2022-08-26T23:47:59.096Z,7.07
2022-08-26T23:53:19.372Z,4.72
2022-08-26T23:55:48.120Z,6.20
2022-08-26T23:58:15.141Z,9.50
